createdAt,value
2022-07-29T00:02:17.280Z,4.63
2022-07-29T00:04:46.690Z,3.25
2022-07-29T00:07:14.676Z,4.03
2022-07-29T00:09:51.881Z,4.97
2022-07-29T00:12:21.388Z,4.10
2022-07-29T00:14:55.495Z,6.93
2022-07-29T00:17:23.708Z,3.28
2022-07-29T00:19:53.340Z,4.82
2022-07-29T00:22:21.582Z,4.03
2022-07-29T00:24:50.133Z,3.92
2022-07-29T00:27:19.990Z,4.43
2022-07-29T00:29:47.905Z,3.58
2022-07-29T00:32:15.814Z,6.40
2022-07-29T00:35:01.415Z,4.57
2022-07-29T00:37:30.807Z,4.15
2022-07-29T00:39:58.771Z,7.00
2022-07-29T00:42:26.722Z,3.10
2022-07-29T00:44:54.706Z,2.42
2022-07-29T00:47:22.606Z,1.85
2022-07-29T00:49:50.585Z,3.03
2022-07-29T00:52:18.534Z,1.85
2022-07-29T00:54:47.925Z,3.00
2022-07-29T00:57:15.837Z,1.90
2022-07-29T00:59:43.814Z,3.28
2022-07-29T01:02:11.812Z,4.75
2022-07-29T01:04:39.887Z,2.10
2022-07-29T01:07:08.747Z,2.75
2022-07-29T01:09:45.912Z,2.33
2022-07-29T01:12:19.371Z,3.72
2022-07-29T01:14:49.245Z,4.10
2022-07-29T01:17:23.306Z,3.20
2022-07-29T01:19:58.626Z,2.67
2022-07-29T01:22:51.721Z,2.75
2022-07-29T01:25:45.023Z,2.20
2022-07-29T01:28:40.344Z,2.03
2022-07-29T01:31:18.342Z,2.72
2022-07-29T01:33:59.669Z,2.03
2022-07-29T01:36:33.449Z,2.60
2022-07-29T01:39:07.362Z,3.28
2022-07-29T01:41:38.323Z,2.00
2022-07-29T01:44:15.100Z,3.47
2022-07-29T01:46:51.200Z,2.20
2022-07-29T01:49:23.765Z,3.00
2022-07-29T01:51:59.478Z,2.50
2022-07-29T01:54:32.728Z,2.88
2022-07-29T01:57:02.411Z,2.38
2022-07-29T01:59:35.571Z,3.30
2022-07-29T02:02:04.899Z,1.63
2022-07-29T02:04:35.659Z,2.92
2022-07-29T02:07:07.896Z,2.00
2022-07-29T02:12:08.369Z,1.80
2022-07-29T02:14:41.612Z,2.03
2022-07-29T02:17:10.105Z,2.20
2022-07-29T02:19:40.485Z,3.47
2022-07-29T02:22:08.840Z,2.65
2022-07-29T02:24:39.334Z,1.55
2022-07-29T02:27:09.476Z,2.92
2022-07-29T02:29:41.302Z,1.95
2022-07-29T02:32:11.438Z,4.05
2022-07-29T02:34:41.228Z,2.67
2022-07-29T02:37:11.371Z,3.03
2022-07-29T02:39:41.158Z,1.83
2022-07-29T02:42:12.245Z,2.85
2022-07-29T02:44:41.669Z,2.20
2022-07-29T02:47:15.925Z,1.58
2022-07-29T02:49:53.537Z,2.97
2022-07-29T02:52:26.605Z,2.00
2022-07-29T02:54:58.981Z,1.80
2022-07-29T02:57:35.982Z,3.00
2022-07-29T03:00:29.359Z,1.50
2022-07-29T03:03:00.619Z,2.20
2022-07-29T03:05:29.614Z,2.97
2022-07-29T03:08:00.614Z,1.90
2022-07-29T03:10:29.397Z,2.20
2022-07-29T03:12:59.180Z,1.70
2022-07-29T03:15:29.348Z,1.85
2022-07-29T03:17:57.793Z,2.53
2022-07-29T03:20:26.257Z,1.40
2022-07-29T03:22:54.242Z,2.70
2022-07-29T03:25:22.918Z,2.50
2022-07-29T03:27:51.251Z,3.42
2022-07-29T03:30:22.145Z,2.78
2022-07-29T03:32:52.689Z,2.87
2022-07-29T03:35:21.553Z,1.40
2022-07-29T03:37:49.550Z,1.77
2022-07-29T03:40:21.959Z,1.70
2022-07-29T03:42:53.188Z,2.67
2022-07-29T03:45:22.692Z,1.73
2022-07-29T03:48:00.424Z,2.97
2022-07-29T03:50:30.608Z,1.60
2022-07-29T03:52:59.177Z,1.60
2022-07-29T03:55:28.660Z,2.00
2022-07-29T03:57:58.898Z,2.88
2022-07-29T04:00:28.856Z,3.17
2022-07-29T04:02:58.624Z,1.85
2022-07-29T04:05:26.649Z,1.95
2022-07-29T04:07:54.555Z,1.60
2022-07-29T04:10:31.573Z,2.78
2022-07-29T04:13:00.324Z,3.50
2022-07-29T04:15:31.490Z,1.70
2022-07-29T04:18:01.357Z,3.22
2022-07-29T04:20:29.525Z,1.55
2022-07-29T04:22:57.441Z,2.00
2022-07-29T04:25:25.438Z,3.08
2022-07-29T04:28:02.116Z,2.10
2022-07-29T04:30:30.858Z,1.05
2022-07-29T04:32:58.973Z,1.85
2022-07-29T04:35:28.634Z,1.35
2022-07-29T04:37:56.597Z,2.22
2022-07-29T04:40:25.073Z,1.83
2022-07-29T04:42:53.009Z,2.00
2022-07-29T04:45:22.957Z,1.48
2022-07-29T04:47:51.065Z,1.88
2022-07-29T04:50:19.127Z,2.08
2022-07-29T04:52:48.486Z,1.70
2022-07-29T04:55:16.415Z,1.60
2022-07-29T04:57:44.329Z,2.80
2022-07-29T05:00:13.022Z,4.07
2022-07-29T05:02:41.073Z,1.50
2022-07-29T05:05:09.638Z,1.60
2022-07-29T05:07:37.554Z,1.95
2022-07-29T05:10:07.892Z,3.13
2022-07-29T05:12:36.019Z,1.58
2022-07-29T05:15:03.956Z,2.60
2022-07-29T05:17:31.865Z,2.53
2022-07-29T05:19:59.878Z,1.77
2022-07-29T05:22:27.758Z,3.65
2022-07-29T05:24:55.799Z,1.55
2022-07-29T05:27:25.112Z,1.80
2022-07-29T05:29:53.201Z,2.78
2022-07-29T05:32:21.210Z,1.90
2022-07-29T05:34:51.278Z,2.25
2022-07-29T05:37:20.469Z,2.53
2022-07-29T05:39:56.975Z,1.40
2022-07-29T05:42:27.561Z,1.75
2022-07-29T05:44:55.717Z,2.08
2022-07-29T05:47:24.056Z,2.72
2022-07-29T05:49:52.552Z,1.88
2022-07-29T05:52:20.870Z,1.60
2022-07-29T05:54:49.316Z,1.98
2022-07-29T05:57:18.254Z,1.50
2022-07-29T05:59:48.094Z,1.77
2022-07-29T06:02:16.524Z,3.00
2022-07-29T06:04:45.035Z,16.40
2022-07-29T06:07:13.361Z,8.65
2022-07-29T06:09:41.279Z,17.90
2022-07-29T06:12:09.404Z,18.73
2022-07-29T06:14:38.922Z,9.40
2022-07-29T06:17:08.311Z,9.68
2022-07-29T06:19:37.316Z,4.05
2022-07-29T06:22:05.583Z,7.15
2022-07-29T06:24:33.633Z,6.05
2022-07-29T06:27:01.578Z,3.90
2022-07-29T06:29:29.450Z,9.68
2022-07-29T06:31:57.482Z,8.73
2022-07-29T06:34:26.779Z,14.00
2022-07-29T06:36:54.782Z,9.25
2022-07-29T06:39:22.904Z,8.57
2022-07-29T06:41:52.406Z,8.05
2022-07-29T06:44:20.794Z,6.90
2022-07-29T06:46:50.184Z,9.02
2022-07-29T06:49:18.416Z,4.75
2022-07-29T06:51:47.795Z,5.53
2022-07-29T06:54:15.931Z,8.93
2022-07-29T06:56:44.220Z,5.30
2022-07-29T06:59:14.163Z,5.38
2022-07-29T07:01:44.552Z,4.88
2022-07-29T07:04:13.472Z,5.32
2022-07-29T07:06:41.874Z,2.25
2022-07-29T07:09:11.224Z,6.85
2022-07-29T07:11:39.218Z,5.78
2022-07-29T07:14:07.241Z,3.63
2022-07-29T07:16:35.553Z,4.32
2022-07-29T07:19:03.558Z,3.00
2022-07-29T07:21:31.910Z,2.30
2022-07-29T07:24:00.253Z,4.10
2022-07-29T07:26:30.049Z,2.83
2022-07-29T07:28:58.888Z,2.95
2022-07-29T07:31:27.082Z,5.93
2022-07-29T07:33:55.271Z,4.85
2022-07-29T07:36:23.769Z,6.20
2022-07-29T07:38:51.984Z,3.67
2022-07-29T07:41:19.967Z,5.30
2022-07-29T07:43:49.297Z,4.70
2022-07-29T07:46:17.710Z,6.68
2022-07-29T07:48:45.853Z,2.75
2022-07-29T07:51:14.025Z,4.03
2022-07-29T07:53:42.008Z,4.78
2022-07-29T07:56:11.911Z,4.20
2022-07-29T07:58:40.715Z,3.17
2022-07-29T08:01:10.711Z,3.75
2022-07-29T08:03:39.871Z,3.28
2022-07-29T08:06:08.008Z,3.80
2022-07-29T08:08:36.011Z,3.40
2022-07-29T08:11:08.971Z,3.40
2022-07-29T08:13:38.673Z,3.03
2022-07-29T08:16:13.602Z,5.28
2022-07-29T08:18:45.883Z,5.35
2022-07-29T08:21:14.759Z,5.45
2022-07-29T08:23:56.168Z,2.88
2022-07-29T08:26:27.832Z,3.03
2022-07-29T08:28:55.819Z,4.97
2022-07-29T08:31:23.791Z,3.55
2022-07-29T08:33:53.099Z,4.80
2022-07-29T08:36:22.289Z,5.53
2022-07-29T08:38:50.585Z,5.60
2022-07-29T08:41:19.987Z,8.35
2022-07-29T08:43:48.214Z,3.83
2022-07-29T08:46:16.260Z,5.70
2022-07-29T08:48:44.561Z,4.72
2022-07-29T08:51:18.263Z,4.38
2022-07-29T08:53:49.285Z,3.58
2022-07-29T08:56:18.937Z,6.28
2022-07-29T08:58:50.638Z,5.30
2022-07-29T09:01:35.911Z,2.90
2022-07-29T09:04:06.912Z,5.15
2022-07-29T09:06:39.042Z,4.63
2022-07-29T09:09:07.317Z,5.72
2022-07-29T09:11:35.829Z,3.00
2022-07-29T09:14:03.773Z,3.67
2022-07-29T09:16:53.118Z,3.08
2022-07-29T09:19:27.935Z,5.65
2022-07-29T09:22:02.985Z,4.25
2022-07-29T09:24:43.290Z,4.70
2022-07-29T09:27:23.096Z,2.88
2022-07-29T09:30:01.638Z,3.08
2022-07-29T09:32:30.559Z,4.15
2022-07-29T09:35:18.566Z,4.95
2022-07-29T09:37:48.670Z,3.05
2022-07-29T09:40:19.153Z,6.55
2022-07-29T09:42:47.665Z,4.70
2022-07-29T09:45:29.270Z,3.90
2022-07-29T09:48:00.043Z,4.32
2022-07-29T09:50:38.021Z,8.77
2022-07-29T09:53:07.545Z,3.00
2022-07-29T09:55:47.766Z,3.38
2022-07-29T09:58:19.646Z,2.58
2022-07-29T10:00:49.236Z,3.35
2022-07-29T10:03:18.419Z,3.33
2022-07-29T10:05:47.893Z,1.70
2022-07-29T10:08:27.452Z,2.53
2022-07-29T10:11:14.231Z,3.42
2022-07-29T10:13:43.590Z,4.32
2022-07-29T10:16:11.928Z,2.53
2022-07-29T10:18:43.231Z,2.10
2022-07-29T10:21:35.003Z,4.07
2022-07-29T10:24:01.732Z,2.20
2022-07-29T10:26:31.105Z,4.15
2022-07-29T10:28:59.009Z,2.95
2022-07-29T10:31:35.759Z,3.97
2022-07-29T10:34:11.007Z,4.10
2022-07-29T10:36:56.754Z,5.63
2022-07-29T10:39:44.499Z,3.20
2022-07-29T10:42:33.415Z,2.85
2022-07-29T10:45:04.223Z,4.45
2022-07-29T10:47:35.412Z,2.65
2022-07-29T10:50:05.297Z,2.28
2022-07-29T10:52:57.256Z,3.85
2022-07-29T10:55:37.694Z,2.47
2022-07-29T10:58:20.889Z,3.95
2022-07-29T11:00:50.501Z,1.98
2022-07-29T11:03:50.562Z,4.70
2022-07-29T11:06:27.982Z,2.67
2022-07-29T11:09:20.350Z,2.97
2022-07-29T11:11:54.981Z,2.95
2022-07-29T11:15:00.270Z,4.22
2022-07-29T11:17:46.881Z,2.35
2022-07-29T11:20:51.033Z,3.83
2022-07-29T11:23:21.056Z,2.35
2022-07-29T11:26:18.604Z,2.63
2022-07-29T11:28:54.285Z,2.38
2022-07-29T11:31:36.020Z,1.95
2022-07-29T11:34:28.056Z,3.08
2022-07-29T11:37:27.988Z,2.28
2022-07-29T11:40:20.208Z,3.80
2022-07-29T11:45:44.152Z,2.17
2022-07-29T11:48:29.821Z,1.85
2022-07-29T11:51:01.513Z,2.00
2022-07-29T11:53:32.465Z,3.35
2022-07-29T11:56:02.762Z,1.88
2022-07-29T11:58:32.017Z,1.95
2022-07-29T12:01:04.616Z,1.65
2022-07-29T12:03:36.008Z,4.25
2022-07-29T12:06:07.473Z,4.50
2022-07-29T12:08:43.522Z,1.40
2022-07-29T12:11:20.607Z,3.35
2022-07-29T12:13:50.521Z,2.20
2022-07-29T12:16:25.809Z,1.98
2022-07-29T12:18:58.656Z,4.22
2022-07-29T12:21:28.927Z,1.98
2022-07-29T12:24:03.409Z,2.40
2022-07-29T12:26:40.374Z,2.50
2022-07-29T12:29:11.597Z,1.73
2022-07-29T12:31:45.964Z,4.38
2022-07-29T12:34:15.808Z,1.98
2022-07-29T12:36:44.999Z,1.80
2022-07-29T12:39:13.640Z,3.45
2022-07-29T12:41:41.659Z,3.42
2022-07-29T12:44:09.764Z,2.20
2022-07-29T12:46:37.797Z,5.05
2022-07-29T12:49:09.273Z,3.97
2022-07-29T12:51:40.684Z,2.55
2022-07-29T12:54:11.548Z,2.88
2022-07-29T12:56:44.321Z,1.67
2022-07-29T12:59:17.609Z,1.77
2022-07-29T13:01:48.095Z,2.97
2022-07-29T13:04:28.913Z,4.05
2022-07-29T13:07:04.611Z,1.80
2022-07-29T13:09:40.564Z,3.13
2022-07-29T13:12:11.106Z,2.10
2022-07-29T13:14:40.585Z,2.58
2022-07-29T13:17:11.085Z,1.70
2022-07-29T13:19:42.784Z,1.75
2022-07-29T13:22:12.142Z,2.72
2022-07-29T13:24:54.072Z,2.47
2022-07-29T13:27:23.887Z,1.90
2022-07-29T13:29:53.421Z,2.42
2022-07-29T13:32:28.225Z,2.05
2022-07-29T13:34:59.358Z,2.45
2022-07-29T13:37:30.538Z,3.85
2022-07-29T13:39:58.882Z,4.18
2022-07-29T13:42:28.032Z,1.75
2022-07-29T13:44:56.012Z,3.22
2022-07-29T13:47:32.395Z,2.53
2022-07-29T13:50:02.964Z,1.98
2022-07-29T13:52:31.150Z,2.05
2022-07-29T13:54:59.434Z,2.75
2022-07-29T13:57:27.710Z,2.05
2022-07-29T13:59:55.708Z,1.88
2022-07-29T14:02:25.471Z,1.70
2022-07-29T14:04:54.986Z,2.78
2022-07-29T14:07:24.950Z,2.35
2022-07-29T14:09:53.080Z,1.83
2022-07-29T14:12:21.084Z,2.97
2022-07-29T14:14:48.804Z,2.38
2022-07-29T14:17:17.161Z,1.73
2022-07-29T14:19:45.264Z,2.47
2022-07-29T14:22:13.488Z,2.28
2022-07-29T14:24:43.303Z,1.95
2022-07-29T14:27:11.312Z,2.75
2022-07-29T14:29:39.527Z,2.08
2022-07-29T14:32:08.889Z,2.03
2022-07-29T14:34:36.897Z,2.20
2022-07-29T14:37:06.554Z,3.83
2022-07-29T14:39:39.300Z,2.10
2022-07-29T14:42:12.860Z,4.18
2022-07-29T14:44:42.414Z,2.05
2022-07-29T14:47:11.310Z,3.92
2022-07-29T14:49:39.303Z,6.18
2022-07-29T14:52:07.369Z,3.25
2022-07-29T14:54:35.443Z,3.83
2022-07-29T14:57:03.403Z,2.83
2022-07-29T14:59:32.720Z,1.90
2022-07-29T15:02:01.474Z,2.63
2022-07-29T15:04:29.873Z,3.55
2022-07-29T15:06:57.820Z,1.80
2022-07-29T15:09:25.798Z,1.83
2022-07-29T15:11:53.910Z,2.90
2022-07-29T15:14:21.845Z,2.65
2022-07-29T15:16:52.849Z,1.77
2022-07-29T15:19:21.269Z,1.63
2022-07-29T15:21:49.311Z,1.92
2022-07-29T15:24:18.751Z,5.40
2022-07-29T15:26:47.274Z,2.35
2022-07-29T15:29:15.619Z,2.55
2022-07-29T15:31:43.797Z,2.25
2022-07-29T15:34:13.203Z,4.40
2022-07-29T15:36:52.128Z,6.07
2022-07-29T15:39:21.543Z,3.45
2022-07-29T15:41:49.990Z,4.85
2022-07-29T15:44:17.987Z,3.47
2022-07-29T15:47:03.194Z,3.85
2022-07-29T15:49:47.163Z,2.45
2022-07-29T15:52:19.030Z,3.30
2022-07-29T15:54:53.511Z,4.68
2022-07-29T15:57:22.171Z,3.25
2022-07-29T15:59:50.130Z,3.80
2022-07-29T16:02:18.096Z,2.42
2022-07-29T16:04:47.546Z,3.10
2022-07-29T16:07:15.871Z,4.18
2022-07-29T16:09:44.841Z,3.97
2022-07-29T16:12:17.443Z,2.28
2022-07-29T16:14:46.227Z,1.90
2022-07-29T16:17:15.216Z,4.38
2022-07-29T16:19:44.028Z,4.88
2022-07-29T16:22:13.555Z,6.82
2022-07-29T16:24:41.759Z,4.40
2022-07-29T16:27:10.255Z,5.45
2022-07-29T16:29:38.133Z,20.02
2022-07-29T16:32:06.917Z,21.48
2022-07-29T16:34:34.989Z,22.90
2022-07-29T16:37:03.389Z,21.70
2022-07-29T16:39:32.884Z,20.25
2022-07-29T16:42:03.070Z,18.55
2022-07-29T16:44:33.090Z,18.30
2022-07-29T16:47:02.183Z,19.40
2022-07-29T16:49:31.296Z,15.55
2022-07-29T16:51:59.254Z,15.05
2022-07-29T16:54:27.458Z,10.70
2022-07-29T16:56:57.143Z,10.75
2022-07-29T16:59:25.369Z,13.20
2022-07-29T17:01:53.326Z,12.27
2022-07-29T17:04:22.950Z,16.40
2022-07-29T17:06:51.054Z,15.65
2022-07-29T17:09:19.041Z,16.20
2022-07-29T17:11:54.863Z,13.55
2022-07-29T17:14:26.105Z,14.80
2022-07-29T17:17:00.021Z,15.63
2022-07-29T17:19:30.558Z,12.45
2022-07-29T17:22:07.065Z,13.82
2022-07-29T17:24:40.869Z,17.42
2022-07-29T17:27:09.690Z,13.40
2022-07-29T17:29:39.693Z,12.48
2022-07-29T17:32:09.094Z,11.32
2022-07-29T17:34:37.306Z,11.55
2022-07-29T17:37:05.949Z,12.43
2022-07-29T17:39:35.520Z,11.05
2022-07-29T17:42:03.873Z,14.25
2022-07-29T17:44:32.498Z,10.07
2022-07-29T17:47:06.198Z,10.23
2022-07-29T17:49:36.261Z,9.18
2022-07-29T17:52:05.848Z,9.38
2022-07-29T17:54:33.747Z,10.60
2022-07-29T17:57:01.982Z,9.70
2022-07-29T17:59:30.070Z,12.13
2022-07-29T18:01:58.087Z,10.07
2022-07-29T18:04:28.680Z,12.07
2022-07-29T18:06:56.913Z,6.47
2022-07-29T18:09:25.078Z,7.38
2022-07-29T18:11:52.990Z,6.22
2022-07-29T18:14:20.969Z,9.02
2022-07-29T18:16:48.930Z,9.02
2022-07-29T18:19:17.203Z,7.13
2022-07-29T18:21:54.651Z,9.93
2022-07-29T18:24:25.605Z,7.88
2022-07-29T18:26:54.038Z,6.15
2022-07-29T18:29:22.035Z,7.70
2022-07-29T18:31:50.190Z,8.65
2022-07-29T18:34:18.231Z,6.82
2022-07-29T18:36:47.799Z,11.02
2022-07-29T18:39:21.183Z,5.28
2022-07-29T18:41:51.283Z,8.23
2022-07-29T18:44:21.854Z,8.55
2022-07-29T18:46:50.955Z,6.07
2022-07-29T18:49:19.120Z,10.25
2022-07-29T18:51:48.936Z,6.88
2022-07-29T18:54:18.329Z,9.77
2022-07-29T18:56:47.446Z,8.18
2022-07-29T18:59:19.627Z,8.05
2022-07-29T19:04:17.071Z,8.32
2022-07-29T19:06:45.789Z,7.72
2022-07-29T19:09:16.252Z,6.47
2022-07-29T19:11:44.443Z,8.25
2022-07-29T19:14:12.546Z,7.80
2022-07-29T19:16:40.504Z,5.50
2022-07-29T19:19:08.689Z,7.10
2022-07-29T19:21:36.647Z,4.75
2022-07-29T19:24:07.716Z,6.05
2022-07-29T19:26:43.916Z,10.15
2022-07-29T19:29:11.922Z,6.28
2022-07-29T19:31:40.083Z,6.63
2022-07-29T19:34:08.499Z,6.53
2022-07-29T19:36:36.609Z,6.88
2022-07-29T19:39:04.755Z,4.93
2022-07-29T19:41:33.194Z,6.75
2022-07-29T19:44:02.607Z,5.30
2022-07-29T19:46:30.643Z,5.28
2022-07-29T19:48:58.654Z,4.40
2022-07-29T19:51:26.997Z,4.43
2022-07-29T19:53:54.976Z,6.00
2022-07-29T19:56:25.308Z,4.50
2022-07-29T19:58:53.720Z,4.78
2022-07-29T20:01:24.722Z,5.55
2022-07-29T20:03:53.854Z,6.13
2022-07-29T20:06:23.071Z,3.08
2022-07-29T20:08:55.403Z,6.85
2022-07-29T20:11:26.513Z,3.92
2022-07-29T20:13:54.530Z,4.95
2022-07-29T20:16:25.439Z,4.60
2022-07-29T20:18:53.539Z,3.20
2022-07-29T20:21:21.450Z,2.75
2022-07-29T20:23:49.420Z,3.28
2022-07-29T20:26:18.255Z,4.82
2022-07-29T20:28:49.267Z,3.38
2022-07-29T20:31:20.483Z,3.17
2022-07-29T20:33:50.090Z,5.15
2022-07-29T20:36:18.087Z,7.45
2022-07-29T20:38:46.080Z,6.63
2022-07-29T20:41:14.884Z,3.35
2022-07-29T20:43:43.285Z,5.10
2022-07-29T20:46:11.284Z,3.75
2022-07-29T20:48:39.801Z,5.32
2022-07-29T20:51:09.297Z,4.45
2022-07-29T20:53:38.766Z,5.80
2022-07-29T20:56:07.531Z,5.28
2022-07-29T20:58:36.527Z,5.88
2022-07-29T21:01:04.973Z,4.68
2022-07-29T21:03:33.548Z,4.70
2022-07-29T21:06:01.754Z,5.50
2022-07-29T21:08:31.096Z,3.90
2022-07-29T21:10:59.034Z,4.00
2022-07-29T21:13:27.044Z,4.78
2022-07-29T21:15:59.059Z,4.90
2022-07-29T21:18:32.607Z,10.25
2022-07-29T21:21:01.903Z,3.63
2022-07-29T21:23:31.691Z,4.88
2022-07-29T21:26:00.290Z,6.68
2022-07-29T21:28:27.373Z,5.38
2022-07-29T21:30:55.736Z,6.03
2022-07-29T21:33:23.803Z,8.20
2022-07-29T21:38:41.153Z,2.78
2022-07-29T21:41:10.799Z,4.65
2022-07-29T21:43:41.696Z,3.42
2022-07-29T21:46:10.570Z,3.67
2022-07-29T21:48:43.858Z,7.32
2022-07-29T21:51:12.575Z,3.08
2022-07-29T21:53:41.897Z,4.10
2022-07-29T21:56:13.051Z,5.63
2022-07-29T21:58:43.287Z,5.70
2022-07-29T22:01:11.332Z,3.28
2022-07-29T22:03:39.444Z,4.68
2022-07-29T22:06:07.598Z,6.45
2022-07-29T22:08:35.559Z,5.22
2022-07-29T22:11:04.818Z,5.45
2022-07-29T22:13:32.804Z,5.78
2022-07-29T22:16:05.138Z,4.28
2022-07-29T22:18:33.006Z,5.22
2022-07-29T22:21:00.979Z,6.22
2022-07-29T22:23:28.885Z,5.53
2022-07-29T22:25:57.269Z,5.72
2022-07-29T22:28:26.681Z,4.07
2022-07-29T22:30:54.653Z,5.30
2022-07-29T22:33:23.975Z,5.32
2022-07-29T22:35:51.915Z,3.58
2022-07-29T22:38:19.848Z,5.18
2022-07-29T22:40:50.755Z,7.93
2022-07-29T22:43:18.967Z,8.80
2022-07-29T22:45:50.498Z,7.95
2022-07-29T22:48:20.165Z,9.00
2022-07-29T22:50:48.148Z,5.10
2022-07-29T22:53:16.036Z,5.85
2022-07-29T22:55:43.970Z,6.78
2022-07-29T22:58:12.482Z,7.05
2022-07-29T23:00:41.230Z,6.15
2022-07-29T23:03:10.545Z,6.40
2022-07-29T23:05:38.484Z,5.63
2022-07-29T23:08:06.453Z,5.20
2022-07-29T23:10:34.540Z,6.68
2022-07-29T23:13:02.412Z,5.57
2022-07-29T23:15:30.331Z,6.15
2022-07-29T23:17:58.786Z,7.40
2022-07-29T23:20:28.421Z,6.85
2022-07-29T23:22:56.391Z,5.15
2022-07-29T23:25:24.385Z,9.40
2022-07-29T23:27:52.394Z,5.18
2022-07-29T23:30:20.535Z,6.32
2022-07-29T23:32:48.506Z,6.38
2022-07-29T23:35:16.498Z,6.63
2022-07-29T23:37:45.956Z,5.88
2022-07-29T23:40:14.922Z,5.60
2022-07-29T23:42:44.067Z,5.43
2022-07-29T23:45:13.930Z,5.88
2022-07-29T23:47:42.683Z,7.80
2022-07-29T23:50:13.161Z,5.65
2022-07-29T23:52:41.923Z,6.03
2022-07-29T23:55:38.034Z,8.40
2022-07-29T23:58:00.069Z,6.70
